sensor_id;sensor_type;location;lat;lon;timestamp;temperature;humidity
44111;DHT22;29774;52.664;5.074;2022-08-05T00:01:57;26.60;55.70
44111;DHT22;29774;52.664;5.074;2022-08-05T00:04:23;26.70;55.40
44111;DHT22;29774;52.664;5.074;2022-08-05T00:06:48;26.80;55.20
44111;DHT22;29774;52.664;5.074;2022-08-05T00:09:14;26.80;55.00
44111;DHT22;29774;52.664;5.074;2022-08-05T00:11:40;26.70;55.40
44111;DHT22;29774;52.664;5.074;2022-08-05T00:14:05;26.80;55.10
44111;DHT22;29774;52.664;5.074;2022-08-05T00:16:31;26.70;55.50
44111;DHT22;29774;52.664;5.074;2022-08-05T00:18:57;26.70;55.30
44111;DHT22;29774;52.664;5.074;2022-08-05T00:21:22;26.70;55.30
44111;DHT22;29774;52.664;5.074;2022-08-05T00:23:48;26.70;55.10
44111;DHT22;29774;52.664;5.074;2022-08-05T00:26:14;26.80;55.10
44111;DHT22;29774;52.664;5.074;2022-08-05T00:28:40;26.80;55.00
44111;DHT22;29774;52.664;5.074;2022-08-05T00:31:05;26.70;55.10
44111;DHT22;29774;52.664;5.074;2022-08-05T00:33:33;26.70;55.20
44111;DHT22;29774;52.664;5.074;2022-08-05T00:35:58;26.70;55.30
44111;DHT22;29774;52.664;5.074;2022-08-05T00:38:24;26.70;55.20
44111;DHT22;29774;52.664;5.074;2022-08-05T00:40:55;26.70;55.20
44111;DHT22;29774;52.664;5.074;2022-08-05T00:43:21;26.70;55.20
44111;DHT22;29774;52.664;5.074;2022-08-05T00:45:47;26.40;55.90
44111;DHT22;29774;52.664;5.074;2022-08-05T00:48:15;26.60;55.40
44111;DHT22;29774;52.664;5.074;2022-08-05T00:50:43;26.70;55.20
44111;DHT22;29774;52.664;5.074;2022-08-05T00:53:09;26.70;55.30
44111;DHT22;29774;52.664;5.074;2022-08-05T00:55:35;26.70;55.20
44111;DHT22;29774;52.664;5.074;2022-08-05T00:58:00;26.70;55.20
44111;DHT22;29774;52.664;5.074;2022-08-05T01:00:27;26.70;55.20
44111;DHT22;29774;52.664;5.074;2022-08-05T01:02:54;26.50;55.60
44111;DHT22;29774;52.664;5.074;2022-08-05T01:05:20;26.60;55.10
44111;DHT22;29774;52.664;5.074;2022-08-05T01:07:46;26.20;56.30
44111;DHT22;29774;52.664;5.074;2022-08-05T01:10:13;26.30;56.00
44111;DHT22;29774;52.664;5.074;2022-08-05T01:12:44;26.50;55.60
44111;DHT22;29774;52.664;5.074;2022-08-05T01:15:11;26.60;55.20
44111;DHT22;29774;52.664;5.074;2022-08-05T01:17:44;26.60;55.30
44111;DHT22;29774;52.664;5.074;2022-08-05T01:28:57;26.60;55.10
44111;DHT22;29774;52.664;5.074;2022-08-05T01:32:05;26.60;55.20
44111;DHT22;29774;52.664;5.074;2022-08-05T01:34:35;26.50;55.20
44111;DHT22;29774;52.664;5.074;2022-08-05T01:37:11;26.50;55.30
44111;DHT22;29774;52.664;5.074;2022-08-05T01:39:38;26.60;55.20
44111;DHT22;29774;52.664;5.074;2022-08-05T01:42:05;26.40;55.50
44111;DHT22;29774;52.664;5.074;2022-08-05T01:44:32;26.50;55.40
44111;DHT22;29774;52.664;5.074;2022-08-05T01:46:59;26.60;55.30
44111;DHT22;29774;52.664;5.074;2022-08-05T01:49:26;26.50;55.40
44111;DHT22;29774;52.664;5.074;2022-08-05T01:51:58;26.50;55.30
44111;DHT22;29774;52.664;5.074;2022-08-05T01:54:30;26.50;55.20
44111;DHT22;29774;52.664;5.074;2022-08-05T01:56:56;26.50;55.20
44111;DHT22;29774;52.664;5.074;2022-08-05T01:59:25;26.50;55.20
44111;DHT22;29774;52.664;5.074;2022-08-05T02:01:53;26.40;55.40
44111;DHT22;29774;52.664;5.074;2022-08-05T02:04:21;26.30;55.70
44111;DHT22;29774;52.664;5.074;2022-08-05T02:06:48;26.40;55.30
44111;DHT22;29774;52.664;5.074;2022-08-05T02:09:14;26.30;55.80
44111;DHT22;29774;52.664;5.074;2022-08-05T02:12:04;26.40;55.40
44111;DHT22;29774;52.664;5.074;2022-08-05T02:14:44;26.50;55.10
44111;DHT22;29774;52.664;5.074;2022-08-05T02:17:35;26.50;55.10
44111;DHT22;29774;52.664;5.074;2022-08-05T02:20:05;26.50;55.10
44111;DHT22;29774;52.664;5.074;2022-08-05T02:22:58;26.40;55.40
44111;DHT22;29774;52.664;5.074;2022-08-05T02:25:28;26.50;55.10
44111;DHT22;29774;52.664;5.074;2022-08-05T02:27:56;26.40;55.20
44111;DHT22;29774;52.664;5.074;2022-08-05T02:30:24;26.30;55.60
44111;DHT22;29774;52.664;5.074;2022-08-05T02:32:53;26.30;55.70
44111;DHT22;29774;52.664;5.074;2022-08-05T02:35:22;26.20;55.90
44111;DHT22;29774;52.664;5.074;2022-08-05T02:37:49;26.30;55.50
44111;DHT22;29774;52.664;5.074;2022-08-05T02:40:17;26.30;55.70
44111;DHT22;29774;52.664;5.074;2022-08-05T02:42:45;26.30;55.50
44111;DHT22;29774;52.664;5.074;2022-08-05T02:45:11;26.10;56.00
44111;DHT22;29774;52.664;5.074;2022-08-05T02:47:38;26.30;55.60
44111;DHT22;29774;52.664;5.074;2022-08-05T02:50:05;26.20;55.60
44111;DHT22;29774;52.664;5.074;2022-08-05T02:52:32;26.30;55.30
44111;DHT22;29774;52.664;5.074;2022-08-05T02:54:59;26.30;55.30
44111;DHT22;29774;52.664;5.074;2022-08-05T02:57:26;25.80;56.70
44111;DHT22;29774;52.664;5.074;2022-08-05T02:59:52;26.20;55.70
44111;DHT22;29774;52.664;5.074;2022-08-05T03:02:21;26.20;55.50
44111;DHT22;29774;52.664;5.074;2022-08-05T03:04:48;26.30;55.10
44111;DHT22;29774;52.664;5.074;2022-08-05T03:07:14;26.30;55.10
44111;DHT22;29774;52.664;5.074;2022-08-05T03:09:44;26.40;54.90
44111;DHT22;29774;52.664;5.074;2022-08-05T03:12:28;26.30;55.00
44111;DHT22;29774;52.664;5.074;2022-08-05T03:14:54;26.40;55.00
44111;DHT22;29774;52.664;5.074;2022-08-05T03:17:20;26.30;55.10
44111;DHT22;29774;52.664;5.074;2022-08-05T03:19:45;26.30;55.00
44111;DHT22;29774;52.664;5.074;2022-08-05T03:22:11;26.30;54.90
44111;DHT22;29774;52.664;5.074;2022-08-05T03:24:36;26.20;55.10
44111;DHT22;29774;52.664;5.074;2022-08-05T03:27:02;26.20;55.00
44111;DHT22;29774;52.664;5.074;2022-08-05T03:29:28;26.30;54.90
44111;DHT22;29774;52.664;5.074;2022-08-05T03:31:54;26.30;54.90
44111;DHT22;29774;52.664;5.074;2022-08-05T03:34:20;26.20;55.20
44111;DHT22;29774;52.664;5.074;2022-08-05T03:36:46;26.30;54.90
44111;DHT22;29774;52.664;5.074;2022-08-05T03:39:11;26.30;54.90
44111;DHT22;29774;52.664;5.074;2022-08-05T03:41:37;26.20;54.90
44111;DHT22;29774;52.664;5.074;2022-08-05T03:44:03;26.30;54.90
44111;DHT22;29774;52.664;5.074;2022-08-05T03:46:28;26.20;54.90
44111;DHT22;29774;52.664;5.074;2022-08-05T03:48:54;26.20;54.90
44111;DHT22;29774;52.664;5.074;2022-08-05T03:51:23;26.20;53.00
44111;DHT22;29774;52.664;5.074;2022-08-05T03:53:55;26.00;55.40
44111;DHT22;29774;52.664;5.074;2022-08-05T03:56:44;26.00;55.50
44111;DHT22;29774;52.664;5.074;2022-08-05T03:59:15;26.20;55.10
44111;DHT22;29774;52.664;5.074;2022-08-05T04:01:46;26.20;54.90
44111;DHT22;29774;52.664;5.074;2022-08-05T04:04:14;26.20;55.00
44111;DHT22;29774;52.664;5.074;2022-08-05T04:06:40;26.20;54.90
44111;DHT22;29774;52.664;5.074;2022-08-05T04:09:06;26.20;54.90
44111;DHT22;29774;52.664;5.074;2022-08-05T04:11:33;26.20;55.00
44111;DHT22;29774;52.664;5.074;2022-08-05T04:13:59;26.20;55.00
44111;DHT22;29774;52.664;5.074;2022-08-05T04:16:25;26.20;55.00
44111;DHT22;29774;52.664;5.074;2022-08-05T04:18:51;26.10;55.10
44111;DHT22;29774;52.664;5.074;2022-08-05T04:21:17;26.10;55.20
44111;DHT22;29774;52.664;5.074;2022-08-05T04:23:43;26.10;55.10
44111;DHT22;29774;52.664;5.074;2022-08-05T04:26:08;26.10;55.00
44111;DHT22;29774;52.664;5.074;2022-08-05T04:28:34;26.20;55.00
44111;DHT22;29774;52.664;5.074;2022-08-05T04:31:00;26.20;54.90
44111;DHT22;29774;52.664;5.074;2022-08-05T04:33:26;26.20;54.80
44111;DHT22;29774;52.664;5.074;2022-08-05T04:35:51;26.10;54.90
44111;DHT22;29774;52.664;5.074;2022-08-05T04:38:17;26.20;54.90
44111;DHT22;29774;52.664;5.074;2022-08-05T04:40:42;26.10;55.00
44111;DHT22;29774;52.664;5.074;2022-08-05T04:43:08;25.70;56.00
44111;DHT22;29774;52.664;5.074;2022-08-05T04:45:34;25.80;55.80
44111;DHT22;29774;52.664;5.074;2022-08-05T04:50:30;25.70;55.80
44111;DHT22;29774;52.664;5.074;2022-08-05T04:52:56;26.00;55.20
44111;DHT22;29774;52.664;5.074;2022-08-05T04:55:21;25.50;56.10
44111;DHT22;29774;52.664;5.074;2022-08-05T04:57:47;25.80;55.40
44111;DHT22;29774;52.664;5.074;2022-08-05T05:00:13;26.00;55.00
44111;DHT22;29774;52.664;5.074;2022-08-05T05:02:39;26.00;54.90
44111;DHT22;29774;52.664;5.074;2022-08-05T05:05:05;26.00;55.00
44111;DHT22;29774;52.664;5.074;2022-08-05T05:07:31;25.90;55.10
44111;DHT22;29774;52.664;5.074;2022-08-05T05:09:56;25.70;56.10
44111;DHT22;29774;52.664;5.074;2022-08-05T05:12:22;25.80;55.40
44111;DHT22;29774;52.664;5.074;2022-08-05T05:14:48;25.90;55.10
44111;DHT22;29774;52.664;5.074;2022-08-05T05:17:14;26.00;54.90
44111;DHT22;29774;52.664;5.074;2022-08-05T05:19:39;26.00;54.90
44111;DHT22;29774;52.664;5.074;2022-08-05T05:22:05;26.00;54.80
44111;DHT22;29774;52.664;5.074;2022-08-05T05:24:31;26.00;54.70
44111;DHT22;29774;52.664;5.074;2022-08-05T05:26:57;26.00;54.70
44111;DHT22;29774;52.664;5.074;2022-08-05T05:29:22;25.90;54.80
44111;DHT22;29774;52.664;5.074;2022-08-05T05:31:48;25.80;54.80
44111;DHT22;29774;52.664;5.074;2022-08-05T05:34:13;25.70;55.30
44111;DHT22;29774;52.664;5.074;2022-08-05T05:36:39;25.70;55.40
44111;DHT22;29774;52.664;5.074;2022-08-05T05:39:05;25.50;55.80
44111;DHT22;29774;52.664;5.074;2022-08-05T05:41:30;25.50;55.80
44111;DHT22;29774;52.664;5.074;2022-08-05T05:43:56;25.50;55.70
44111;DHT22;29774;52.664;5.074;2022-08-05T05:46:21;25.40;55.90
44111;DHT22;29774;52.664;5.074;2022-08-05T05:48:47;25.30;54.40
44111;DHT22;29774;52.664;5.074;2022-08-05T05:51:23;25.30;56.30
44111;DHT22;29774;52.664;5.074;2022-08-05T05:53:50;25.40;56.00
44111;DHT22;29774;52.664;5.074;2022-08-05T05:56:16;25.30;55.90
44111;DHT22;29774;52.664;5.074;2022-08-05T05:58:45;25.10;56.80
44111;DHT22;29774;52.664;5.074;2022-08-05T06:01:12;25.30;56.10
44111;DHT22;29774;52.664;5.074;2022-08-05T06:03:38;25.10;56.40
44111;DHT22;29774;52.664;5.074;2022-08-05T06:06:04;25.00;57.10
44111;DHT22;29774;52.664;5.074;2022-08-05T06:08:31;25.10;55.60
44111;DHT22;29774;52.664;5.074;2022-08-05T06:10:56;25.00;56.90
44111;DHT22;29774;52.664;5.074;2022-08-05T06:13:22;25.20;56.40
44111;DHT22;29774;52.664;5.074;2022-08-05T06:15:47;25.00;54.10
44111;DHT22;29774;52.664;5.074;2022-08-05T06:18:13;25.00;56.50
44111;DHT22;29774;52.664;5.074;2022-08-05T06:20:39;25.10;56.20
44111;DHT22;29774;52.664;5.074;2022-08-05T06:23:04;25.00;56.60
44111;DHT22;29774;52.664;5.074;2022-08-05T06:25:30;25.00;56.40
44111;DHT22;29774;52.664;5.074;2022-08-05T06:27:55;24.70;57.10
44111;DHT22;29774;52.664;5.074;2022-08-05T06:30:21;24.90;56.50
44111;DHT22;29774;52.664;5.074;2022-08-05T06:32:46;24.70;57.30
44111;DHT22;29774;52.664;5.074;2022-08-05T06:35:12;24.70;57.10
44111;DHT22;29774;52.664;5.074;2022-08-05T06:37:38;24.70;55.50
44111;DHT22;29774;52.664;5.074;2022-08-05T06:40:04;24.90;56.50
44111;DHT22;29774;52.664;5.074;2022-08-05T06:42:30;25.00;56.30
44111;DHT22;29774;52.664;5.074;2022-08-05T06:44:55;24.90;56.00
44111;DHT22;29774;52.664;5.074;2022-08-05T06:47:21;25.00;55.90
44111;DHT22;29774;52.664;5.074;2022-08-05T06:49:46;25.00;56.00
44111;DHT22;29774;52.664;5.074;2022-08-05T06:52:12;24.90;56.10
44111;DHT22;29774;52.664;5.074;2022-08-05T06:54:37;24.90;56.00
44111;DHT22;29774;52.664;5.074;2022-08-05T06:57:03;24.70;56.20
44111;DHT22;29774;52.664;5.074;2022-08-05T06:59:29;24.70;56.50
44111;DHT22;29774;52.664;5.074;2022-08-05T07:01:54;24.90;56.10
44111;DHT22;29774;52.664;5.074;2022-08-05T07:04:20;24.80;56.40
44111;DHT22;29774;52.664;5.074;2022-08-05T07:06:45;24.80;56.50
44111;DHT22;29774;52.664;5.074;2022-08-05T07:09:11;24.80;56.40
44111;DHT22;29774;52.664;5.074;2022-08-05T07:11:37;24.80;56.10
44111;DHT22;29774;52.664;5.074;2022-08-05T07:14:02;24.90;55.00
44111;DHT22;29774;52.664;5.074;2022-08-05T07:16:47;24.80;55.70
44111;DHT22;29774;52.664;5.074;2022-08-05T07:19:17;24.90;55.80
44111;DHT22;29774;52.664;5.074;2022-08-05T07:21:45;24.90;55.20
44111;DHT22;29774;52.664;5.074;2022-08-05T07:24:11;24.80;56.20
44111;DHT22;29774;52.664;5.074;2022-08-05T07:26:36;24.80;56.00
44111;DHT22;29774;52.664;5.074;2022-08-05T07:29:03;24.80;55.70
44111;DHT22;29774;52.664;5.074;2022-08-05T07:31:28;24.80;53.90
44111;DHT22;29774;52.664;5.074;2022-08-05T07:33:54;24.80;56.00
44111;DHT22;29774;52.664;5.074;2022-08-05T07:36:19;24.90;55.40
44111;DHT22;29774;52.664;5.074;2022-08-05T07:38:45;25.00;52.30
44111;DHT22;29774;52.664;5.074;2022-08-05T07:41:14;25.00;55.40
44111;DHT22;29774;52.664;5.074;2022-08-05T07:43:41;25.00;55.20
44111;DHT22;29774;52.664;5.074;2022-08-05T07:46:07;24.80;55.30
44111;DHT22;29774;52.664;5.074;2022-08-05T07:48:32;25.10;54.80
44111;DHT22;29774;52.664;5.074;2022-08-05T07:50:59;25.10;55.00
44111;DHT22;29774;52.664;5.074;2022-08-05T07:53:24;25.10;54.50
44111;DHT22;29774;52.664;5.074;2022-08-05T07:55:50;25.20;54.60
44111;DHT22;29774;52.664;5.074;2022-08-05T07:58:16;25.10;54.90
44111;DHT22;29774;52.664;5.074;2022-08-05T08:00:42;25.20;54.00
44111;DHT22;29774;52.664;5.074;2022-08-05T08:03:12;25.20;54.70
44111;DHT22;29774;52.664;5.074;2022-08-05T08:05:39;25.30;54.40
44111;DHT22;29774;52.664;5.074;2022-08-05T08:08:11;25.30;54.30
44111;DHT22;29774;52.664;5.074;2022-08-05T08:10:37;25.30;54.30
44111;DHT22;29774;52.664;5.074;2022-08-05T08:13:03;25.30;54.20
44111;DHT22;29774;52.664;5.074;2022-08-05T08:15:29;25.30;51.70
44111;DHT22;29774;52.664;5.074;2022-08-05T08:17:55;25.30;53.90
44111;DHT22;29774;52.664;5.074;2022-08-05T08:20:24;25.40;53.90
44111;DHT22;29774;52.664;5.074;2022-08-05T08:22:59;25.30;52.20
44111;DHT22;29774;52.664;5.074;2022-08-05T08:25:27;25.40;53.80
44111;DHT22;29774;52.664;5.074;2022-08-05T08:27:53;25.40;53.70
44111;DHT22;29774;52.664;5.074;2022-08-05T08:30:19;25.40;52.80
44111;DHT22;29774;52.664;5.074;2022-08-05T08:32:45;25.30;53.80
44111;DHT22;29774;52.664;5.074;2022-08-05T08:35:11;25.40;53.80
44111;DHT22;29774;52.664;5.074;2022-08-05T08:37:37;25.40;52.80
44111;DHT22;29774;52.664;5.074;2022-08-05T08:40:03;25.30;53.50
44111;DHT22;29774;52.664;5.074;2022-08-05T08:42:29;25.40;53.10
44111;DHT22;29774;52.664;5.074;2022-08-05T08:44:56;25.40;52.80
44111;DHT22;29774;52.664;5.074;2022-08-05T08:47:25;25.40;51.90
44111;DHT22;29774;52.664;5.074;2022-08-05T08:49:53;25.50;52.60
44111;DHT22;29774;52.664;5.074;2022-08-05T08:52:31;25.40;44.40
44111;DHT22;29774;52.664;5.074;2022-08-05T08:54:58;25.40;52.40
44111;DHT22;29774;52.664;5.074;2022-08-05T08:57:24;25.30;52.60
44111;DHT22;29774;52.664;5.074;2022-08-05T08:59:51;25.20;49.40
44111;DHT22;29774;52.664;5.074;2022-08-05T09:02:19;25.00;46.40
44111;DHT22;29774;52.664;5.074;2022-08-05T09:04:46;25.00;45.80
44111;DHT22;29774;52.664;5.074;2022-08-05T09:07:12;25.10;44.80
44111;DHT22;29774;52.664;5.074;2022-08-05T09:09:38;25.00;44.50
44111;DHT22;29774;52.664;5.074;2022-08-05T09:12:07;24.80;43.70
44111;DHT22;29774;52.664;5.074;2022-08-05T09:14:33;24.50;44.10
44111;DHT22;29774;52.664;5.074;2022-08-05T09:17:00;24.80;44.00
44111;DHT22;29774;52.664;5.074;2022-08-05T09:19:26;24.90;43.10
44111;DHT22;29774;52.664;5.074;2022-08-05T09:21:52;24.90;43.70
44111;DHT22;29774;52.664;5.074;2022-08-05T09:24:18;25.20;44.20
44111;DHT22;29774;52.664;5.074;2022-08-05T09:26:50;25.30;45.20
44111;DHT22;29774;52.664;5.074;2022-08-05T09:29:16;25.40;46.10
44111;DHT22;29774;52.664;5.074;2022-08-05T09:31:42;25.40;46.50
44111;DHT22;29774;52.664;5.074;2022-08-05T09:34:09;25.40;47.30
44111;DHT22;29774;52.664;5.074;2022-08-05T09:39:11;25.50;47.70
44111;DHT22;29774;52.664;5.074;2022-08-05T09:42:01;25.60;47.60
44111;DHT22;29774;52.664;5.074;2022-08-05T09:44:38;25.70;47.90
44111;DHT22;29774;52.664;5.074;2022-08-05T09:47:14;25.70;48.00
44111;DHT22;29774;52.664;5.074;2022-08-05T09:49:43;25.70;48.60
44111;DHT22;29774;52.664;5.074;2022-08-05T09:52:23;25.70;48.90
44111;DHT22;29774;52.664;5.074;2022-08-05T09:55:06;25.70;48.90
44111;DHT22;29774;52.664;5.074;2022-08-05T10:00:14;25.70;49.50
44111;DHT22;29774;52.664;5.074;2022-08-05T10:02:44;25.70;49.90
44111;DHT22;29774;52.664;5.074;2022-08-05T10:07:49;25.80;49.90
44111;DHT22;29774;52.664;5.074;2022-08-05T10:10:23;25.80;50.10
44111;DHT22;29774;52.664;5.074;2022-08-05T10:12:52;25.80;50.00
44111;DHT22;29774;52.664;5.074;2022-08-05T10:15:23;25.80;50.10
44111;DHT22;29774;52.664;5.074;2022-08-05T10:18:09;25.90;50.00
44111;DHT22;29774;52.664;5.074;2022-08-05T10:23:09;25.90;50.20
44111;DHT22;29774;52.664;5.074;2022-08-05T10:25:35;25.80;48.60
44111;DHT22;29774;52.664;5.074;2022-08-05T10:28:01;25.70;50.30
44111;DHT22;29774;52.664;5.074;2022-08-05T10:30:27;25.80;50.10
44111;DHT22;29774;52.664;5.074;2022-08-05T10:32:54;25.90;50.00
44111;DHT22;29774;52.664;5.074;2022-08-05T10:35:21;25.80;50.30
44111;DHT22;29774;52.664;5.074;2022-08-05T10:37:47;25.90;50.40
44111;DHT22;29774;52.664;5.074;2022-08-05T10:40:35;26.00;50.20
44111;DHT22;29774;52.664;5.074;2022-08-05T10:46:03;25.90;47.50
44111;DHT22;29774;52.664;5.074;2022-08-05T10:51:14;25.90;50.20
44111;DHT22;29774;52.664;5.074;2022-08-05T10:53:56;26.00;49.50
44111;DHT22;29774;52.664;5.074;2022-08-05T10:56:29;26.00;50.10
44111;DHT22;29774;52.664;5.074;2022-08-05T11:01:40;26.10;50.00
44111;DHT22;29774;52.664;5.074;2022-08-05T11:04:10;26.00;50.30
44111;DHT22;29774;52.664;5.074;2022-08-05T11:15:28;26.20;49.90
44111;DHT22;29774;52.664;5.074;2022-08-05T11:18:06;26.20;49.80
44111;DHT22;29774;52.664;5.074;2022-08-05T11:20:42;26.20;49.80
44111;DHT22;29774;52.664;5.074;2022-08-05T11:23:27;26.20;50.00
44111;DHT22;29774;52.664;5.074;2022-08-05T11:28:46;26.10;49.90
44111;DHT22;29774;52.664;5.074;2022-08-05T11:39:07;26.20;49.80
44111;DHT22;29774;52.664;5.074;2022-08-05T11:41:34;26.20;49.90
44111;DHT22;29774;52.664;5.074;2022-08-05T11:44:05;26.20;47.80
44111;DHT22;29774;52.664;5.074;2022-08-05T11:46:39;26.20;50.00
44111;DHT22;29774;52.664;5.074;2022-08-05T11:49:07;26.30;49.60
44111;DHT22;29774;52.664;5.074;2022-08-05T11:51:33;26.20;50.00
44111;DHT22;29774;52.664;5.074;2022-08-05T11:53:59;26.10;47.40
44111;DHT22;29774;52.664;5.074;2022-08-05T11:56:45;26.20;49.80
44111;DHT22;29774;52.664;5.074;2022-08-05T11:59:19;26.10;49.80
44111;DHT22;29774;52.664;5.074;2022-08-05T12:04:22;26.30;47.90
44111;DHT22;29774;52.664;5.074;2022-08-05T12:06:48;26.20;49.60
44111;DHT22;29774;52.664;5.074;2022-08-05T12:09:17;26.30;49.80
44111;DHT22;29774;52.664;5.074;2022-08-05T12:11:44;26.30;49.90
44111;DHT22;29774;52.664;5.074;2022-08-05T12:14:10;26.40;49.90
44111;DHT22;29774;52.664;5.074;2022-08-05T12:16:38;26.40;49.90
44111;DHT22;29774;52.664;5.074;2022-08-05T12:19:05;26.40;49.70
44111;DHT22;29774;52.664;5.074;2022-08-05T12:21:34;26.40;49.80
44111;DHT22;29774;52.664;5.074;2022-08-05T12:24:05;26.40;49.70
44111;DHT22;29774;52.664;5.074;2022-08-05T12:29:30;26.40;49.80
44111;DHT22;29774;52.664;5.074;2022-08-05T12:31:56;26.30;49.60
44111;DHT22;29774;52.664;5.074;2022-08-05T12:34:27;26.40;49.50
44111;DHT22;29774;52.664;5.074;2022-08-05T12:36:55;26.40;49.40
44111;DHT22;29774;52.664;5.074;2022-08-05T12:39:25;26.40;49.30
44111;DHT22;29774;52.664;5.074;2022-08-05T12:41:58;26.20;49.30
44111;DHT22;29774;52.664;5.074;2022-08-05T12:44:25;26.20;49.30
44111;DHT22;29774;52.664;5.074;2022-08-05T12:46:52;26.40;49.00
44111;DHT22;29774;52.664;5.074;2022-08-05T12:49:18;26.40;46.80
44111;DHT22;29774;52.664;5.074;2022-08-05T12:54:10;26.30;49.80
44111;DHT22;29774;52.664;5.074;2022-08-05T12:56:45;26.30;49.30
44111;DHT22;29774;52.664;5.074;2022-08-05T12:59:19;26.40;49.50
44111;DHT22;29774;52.664;5.074;2022-08-05T13:02:03;26.40;49.60
44111;DHT22;29774;52.664;5.074;2022-08-05T13:04:31;26.30;49.50
44111;DHT22;29774;52.664;5.074;2022-08-05T13:06:59;26.40;49.90
44111;DHT22;29774;52.664;5.074;2022-08-05T13:09:26;26.50;49.60
44111;DHT22;29774;52.664;5.074;2022-08-05T13:12:07;26.40;50.00
44111;DHT22;29774;52.664;5.074;2022-08-05T13:17:08;26.50;49.70
44111;DHT22;29774;52.664;5.074;2022-08-05T13:19:34;26.50;49.70
44111;DHT22;29774;52.664;5.074;2022-08-05T13:22:00;26.50;49.50
44111;DHT22;29774;52.664;5.074;2022-08-05T13:24:25;26.50;49.60
44111;DHT22;29774;52.664;5.074;2022-08-05T13:26:51;26.50;49.60
44111;DHT22;29774;52.664;5.074;2022-08-05T13:29:17;26.60;49.50
44111;DHT22;29774;52.664;5.074;2022-08-05T13:31:44;26.60;46.60
44111;DHT22;29774;52.664;5.074;2022-08-05T13:34:10;26.60;49.60
44111;DHT22;29774;52.664;5.074;2022-08-05T13:36:36;26.50;49.80
44111;DHT22;29774;52.664;5.074;2022-08-05T13:39:04;26.50;49.40
44111;DHT22;29774;52.664;5.074;2022-08-05T13:41:30;26.50;49.10
44111;DHT22;29774;52.664;5.074;2022-08-05T13:43:55;26.50;49.20
44111;DHT22;29774;52.664;5.074;2022-08-05T13:46:24;26.60;49.20
44111;DHT22;29774;52.664;5.074;2022-08-05T13:48:50;26.50;49.40
44111;DHT22;29774;52.664;5.074;2022-08-05T13:51:25;26.60;49.10
44111;DHT22;29774;52.664;5.074;2022-08-05T13:53:51;26.70;49.10
44111;DHT22;29774;52.664;5.074;2022-08-05T13:56:17;26.60;49.40
44111;DHT22;29774;52.664;5.074;2022-08-05T13:58:42;26.60;49.30
44111;DHT22;29774;52.664;5.074;2022-08-05T14:01:08;26.70;49.40
44111;DHT22;29774;52.664;5.074;2022-08-05T14:03:33;26.60;49.60
44111;DHT22;29774;52.664;5.074;2022-08-05T14:05:59;26.70;49.30
44111;DHT22;29774;52.664;5.074;2022-08-05T14:08:42;26.70;49.40
44111;DHT22;29774;52.664;5.074;2022-08-05T14:11:08;26.70;49.60
44111;DHT22;29774;52.664;5.074;2022-08-05T14:13:34;26.60;49.10
44111;DHT22;29774;52.664;5.074;2022-08-05T14:16:00;26.50;50.00
44111;DHT22;29774;52.664;5.074;2022-08-05T14:18:25;26.60;49.70
44111;DHT22;29774;52.664;5.074;2022-08-05T14:20:51;26.70;49.80
44111;DHT22;29774;52.664;5.074;2022-08-05T14:23:16;26.70;49.90
44111;DHT22;29774;52.664;5.074;2022-08-05T14:25:42;26.70;50.00
44111;DHT22;29774;52.664;5.074;2022-08-05T14:28:07;26.70;46.10
44111;DHT22;29774;52.664;5.074;2022-08-05T14:30:33;26.70;49.80
44111;DHT22;29774;52.664;5.074;2022-08-05T14:32:58;26.70;49.90
44111;DHT22;29774;52.664;5.074;2022-08-05T14:35:24;26.70;49.00
44111;DHT22;29774;52.664;5.074;2022-08-05T14:37:50;26.80;49.70
44111;DHT22;29774;52.664;5.074;2022-08-05T14:40:15;26.70;49.60
44111;DHT22;29774;52.664;5.074;2022-08-05T14:42:41;26.80;48.30
44111;DHT22;29774;52.664;5.074;2022-08-05T14:45:07;26.70;49.80
44111;DHT22;29774;52.664;5.074;2022-08-05T14:47:33;26.80;49.60
44111;DHT22;29774;52.664;5.074;2022-08-05T14:49:58;26.80;49.50
44111;DHT22;29774;52.664;5.074;2022-08-05T14:52:24;26.70;49.90
44111;DHT22;29774;52.664;5.074;2022-08-05T14:54:49;26.70;50.10
44111;DHT22;29774;52.664;5.074;2022-08-05T14:57:15;26.70;49.90
44111;DHT22;29774;52.664;5.074;2022-08-05T14:59:40;26.80;49.90
44111;DHT22;29774;52.664;5.074;2022-08-05T15:02:06;26.80;44.90
44111;DHT22;29774;52.664;5.074;2022-08-05T15:04:32;26.80;49.80
44111;DHT22;29774;52.664;5.074;2022-08-05T15:06:57;26.80;49.90
44111;DHT22;29774;52.664;5.074;2022-08-05T15:09:23;26.80;49.90
44111;DHT22;29774;52.664;5.074;2022-08-05T15:11:48;26.70;50.00
44111;DHT22;29774;52.664;5.074;2022-08-05T15:14:14;26.80;48.40
44111;DHT22;29774;52.664;5.074;2022-08-05T15:16:40;26.80;49.80
44111;DHT22;29774;52.664;5.074;2022-08-05T15:19:06;26.90;49.70
44111;DHT22;29774;52.664;5.074;2022-08-05T15:21:31;26.80;50.10
44111;DHT22;29774;52.664;5.074;2022-08-05T15:24:15;26.80;50.00
44111;DHT22;29774;52.664;5.074;2022-08-05T15:26:41;26.90;49.90
44111;DHT22;29774;52.664;5.074;2022-08-05T15:29:06;26.80;50.00
44111;DHT22;29774;52.664;5.074;2022-08-05T15:31:32;26.70;49.40
44111;DHT22;29774;52.664;5.074;2022-08-05T15:33:58;26.80;48.70
44111;DHT22;29774;52.664;5.074;2022-08-05T15:36:23;26.70;50.00
44111;DHT22;29774;52.664;5.074;2022-08-05T15:38:49;26.70;49.80
44111;DHT22;29774;52.664;5.074;2022-08-05T15:41:14;26.80;49.50
44111;DHT22;29774;52.664;5.074;2022-08-05T15:43:40;26.70;49.70
44111;DHT22;29774;52.664;5.074;2022-08-05T15:46:05;26.50;50.10
44111;DHT22;29774;52.664;5.074;2022-08-05T15:48:31;26.70;49.60
44111;DHT22;29774;52.664;5.074;2022-08-05T15:50:56;26.40;47.60
44111;DHT22;29774;52.664;5.074;2022-08-05T15:53:22;25.80;47.30
44111;DHT22;29774;52.664;5.074;2022-08-05T15:55:48;25.40;48.30
44111;DHT22;29774;52.664;5.074;2022-08-05T15:58:13;25.90;47.30
44111;DHT22;29774;52.664;5.074;2022-08-05T16:00:39;26.20;42.00
44111;DHT22;29774;52.664;5.074;2022-08-05T16:03:06;26.30;48.00
44111;DHT22;29774;52.664;5.074;2022-08-05T16:05:32;26.30;48.20
44111;DHT22;29774;52.664;5.074;2022-08-05T16:07:57;26.30;48.00
44111;DHT22;29774;52.664;5.074;2022-08-05T16:10:23;26.30;48.50
44111;DHT22;29774;52.664;5.074;2022-08-05T16:12:48;26.20;47.90
44111;DHT22;29774;52.664;5.074;2022-08-05T16:15:14;26.30;48.70
44111;DHT22;29774;52.664;5.074;2022-08-05T16:17:40;26.10;49.10
44111;DHT22;29774;52.664;5.074;2022-08-05T16:20:06;26.20;49.20
44111;DHT22;29774;52.664;5.074;2022-08-05T16:22:32;25.90;50.00
44111;DHT22;29774;52.664;5.074;2022-08-05T16:24:57;26.10;49.50
44111;DHT22;29774;52.664;5.074;2022-08-05T16:27:23;26.00;46.70
44111;DHT22;29774;52.664;5.074;2022-08-05T16:29:49;26.00;49.40
44111;DHT22;29774;52.664;5.074;2022-08-05T16:32:14;25.80;50.30
44111;DHT22;29774;52.664;5.074;2022-08-05T16:34:40;25.90;49.50